sensor_id;sensor_type;location;lat;lon;timestamp;temperature;humidity
50758;DHT22;36732;47.980;11.652;2023-02-01T00:00:11;6.90;55.90
50758;DHT22;36732;47.980;11.652;2023-02-01T00:02:37;6.90;56.00
50758;DHT22;36732;47.980;11.652;2023-02-01T00:05:07;6.90;56.00
50758;DHT22;36732;47.980;11.652;2023-02-01T00:07:34;6.90;55.90
50758;DHT22;36732;47.980;11.652;2023-02-01T00:10:00;6.90;56.00
50758;DHT22;36732;47.980;11.652;2023-02-01T00:12:26;6.90;56.10
50758;DHT22;36732;47.980;11.652;2023-02-01T00:14:51;6.90;56.10
50758;DHT22;36732;47.980;11.652;2023-02-01T00:17:17;6.90;56.20
50758;DHT22;36732;47.980;11.652;2023-02-01T00:19:43;6.90;56.20
50758;DHT22;36732;47.980;11.652;2023-02-01T00:22:09;6.90;56.20
50758;DHT22;36732;47.980;11.652;2023-02-01T00:24:34;6.90;56.10
50758;DHT22;36732;47.980;11.652;2023-02-01T00:27:00;6.90;56.10
50758;DHT22;36732;47.980;11.652;2023-02-01T00:29:26;6.90;56.10
50758;DHT22;36732;47.980;11.652;2023-02-01T00:31:52;6.90;56.10
50758;DHT22;36732;47.980;11.652;2023-02-01T00:34:18;6.90;56.00
50758;DHT22;36732;47.980;11.652;2023-02-01T00:36:44;6.90;56.10
50758;DHT22;36732;47.980;11.652;2023-02-01T00:39:10;6.90;56.10
50758;DHT22;36732;47.980;11.652;2023-02-01T00:41:37;6.90;56.00
50758;DHT22;36732;47.980;11.652;2023-02-01T00:44:03;6.90;56.00
50758;DHT22;36732;47.980;11.652;2023-02-01T00:46:29;6.90;56.10
50758;DHT22;36732;47.980;11.652;2023-02-01T00:48:55;6.90;56.20
50758;DHT22;36732;47.980;11.652;2023-02-01T00:51:26;6.90;56.20
50758;DHT22;36732;47.980;11.652;2023-02-01T00:53:54;6.90;56.20
50758;DHT22;36732;47.980;11.652;2023-02-01T00:56:20;6.90;56.10
50758;DHT22;36732;47.980;11.652;2023-02-01T00:58:45;6.90;56.20
50758;DHT22;36732;47.980;11.652;2023-02-01T01:01:15;6.90;56.90
50758;DHT22;36732;47.980;11.652;2023-02-01T01:03:46;6.90;56.10
50758;DHT22;36732;47.980;11.652;2023-02-01T01:06:16;6.90;56.10
50758;DHT22;36732;47.980;11.652;2023-02-01T01:08:43;6.90;56.00
50758;DHT22;36732;47.980;11.652;2023-02-01T01:11:15;6.90;56.10
50758;DHT22;36732;47.980;11.652;2023-02-01T01:13:45;6.90;56.20
50758;DHT22;36732;47.980;11.652;2023-02-01T01:16:11;6.90;56.20
50758;DHT22;36732;47.980;11.652;2023-02-01T01:18:37;6.90;56.20
50758;DHT22;36732;47.980;11.652;2023-02-01T01:21:07;6.90;56.20
50758;DHT22;36732;47.980;11.652;2023-02-01T01:23:35;6.90;56.30
50758;DHT22;36732;47.980;11.652;2023-02-01T01:26:08;6.90;56.40
50758;DHT22;36732;47.980;11.652;2023-02-01T01:28:35;6.90;56.40
50758;DHT22;36732;47.980;11.652;2023-02-01T01:31:01;6.90;56.40
50758;DHT22;36732;47.980;11.652;2023-02-01T01:33:27;6.90;56.50
50758;DHT22;36732;47.980;11.652;2023-02-01T01:35:53;6.90;56.90
50758;DHT22;36732;47.980;11.652;2023-02-01T01:38:18;6.90;57.20
50758;DHT22;36732;47.980;11.652;2023-02-01T01:40:46;6.90;57.50
50758;DHT22;36732;47.980;11.652;2023-02-01T01:43:18;6.90;57.70
50758;DHT22;36732;47.980;11.652;2023-02-01T01:45:47;6.90;58.00
50758;DHT22;36732;47.980;11.652;2023-02-01T01:48:27;6.90;57.90
50758;DHT22;36732;47.980;11.652;2023-02-01T01:50:56;6.90;58.30
50758;DHT22;36732;47.980;11.652;2023-02-01T01:53:34;6.80;58.00
50758;DHT22;36732;47.980;11.652;2023-02-01T01:56:03;6.80;58.10
50758;DHT22;36732;47.980;11.652;2023-02-01T01:58:32;6.80;58.20
50758;DHT22;36732;47.980;11.652;2023-02-01T02:00:58;6.80;58.30
50758;DHT22;36732;47.980;11.652;2023-02-01T02:03:27;6.80;58.30
50758;DHT22;36732;47.980;11.652;2023-02-01T02:05:59;6.80;58.40
50758;DHT22;36732;47.980;11.652;2023-02-01T02:08:27;6.80;58.30
50758;DHT22;36732;47.980;11.652;2023-02-01T02:10:53;6.80;58.40
50758;DHT22;36732;47.980;11.652;2023-02-01T02:13:32;6.80;58.60
50758;DHT22;36732;47.980;11.652;2023-02-01T02:16:27;6.80;58.80
50758;DHT22;36732;47.980;11.652;2023-02-01T02:21:56;6.80;59.20
50758;DHT22;36732;47.980;11.652;2023-02-01T02:24:50;6.80;59.00
50758;DHT22;36732;47.980;11.652;2023-02-01T02:27:59;6.80;59.40
50758;DHT22;36732;47.980;11.652;2023-02-01T02:33:57;6.80;59.50
50758;DHT22;36732;47.980;11.652;2023-02-01T02:36:52;6.80;59.50
50758;DHT22;36732;47.980;11.652;2023-02-01T02:39:54;6.80;59.90
50758;DHT22;36732;47.980;11.652;2023-02-01T02:46:00;6.70;60.00
50758;DHT22;36732;47.980;11.652;2023-02-01T02:48:51;6.80;60.20
50758;DHT22;36732;47.980;11.652;2023-02-01T02:51:27;6.80;60.40
50758;DHT22;36732;47.980;11.652;2023-02-01T02:54:29;6.80;59.80
50758;DHT22;36732;47.980;11.652;2023-02-01T02:57:19;6.80;59.80
50758;DHT22;36732;47.980;11.652;2023-02-01T03:00:08;6.80;59.90
50758;DHT22;36732;47.980;11.652;2023-02-01T03:02:55;6.80;60.00
50758;DHT22;36732;47.980;11.652;2023-02-01T03:05:45;6.80;60.00
50758;DHT22;36732;47.980;11.652;2023-02-01T03:11:00;6.70;60.10
50758;DHT22;36732;47.980;11.652;2023-02-01T03:16:25;6.80;60.40
50758;DHT22;36732;47.980;11.652;2023-02-01T03:24:04;6.80;60.60
50758;DHT22;36732;47.980;11.652;2023-02-01T03:26:38;6.70;60.40
50758;DHT22;36732;47.980;11.652;2023-02-01T03:29:15;6.80;60.50
50758;DHT22;36732;47.980;11.652;2023-02-01T03:31:43;6.70;60.60
50758;DHT22;36732;47.980;11.652;2023-02-01T03:34:11;6.70;60.40
50758;DHT22;36732;47.980;11.652;2023-02-01T03:36:48;6.80;60.60
50758;DHT22;36732;47.980;11.652;2023-02-01T03:39:29;6.80;60.80
50758;DHT22;36732;47.980;11.652;2023-02-01T03:42:05;6.70;60.80
50758;DHT22;36732;47.980;11.652;2023-02-01T03:44:48;6.80;60.80
50758;DHT22;36732;47.980;11.652;2023-02-01T03:47:20;6.80;60.70
50758;DHT22;36732;47.980;11.652;2023-02-01T03:49:54;6.80;60.70
50758;DHT22;36732;47.980;11.652;2023-02-01T03:52:29;6.70;60.80
50758;DHT22;36732;47.980;11.652;2023-02-01T03:54:59;6.70;60.70
50758;DHT22;36732;47.980;11.652;2023-02-01T03:57:29;6.80;60.70
50758;DHT22;36732;47.980;11.652;2023-02-01T04:00:16;6.70;60.70
50758;DHT22;36732;47.980;11.652;2023-02-01T04:02:44;6.80;60.80
50758;DHT22;36732;47.980;11.652;2023-02-01T04:05:10;6.80;60.70
50758;DHT22;36732;47.980;11.652;2023-02-01T04:07:36;6.80;60.70
50758;DHT22;36732;47.980;11.652;2023-02-01T04:10:02;6.70;60.70
50758;DHT22;36732;47.980;11.652;2023-02-01T04:12:28;6.80;60.80
50758;DHT22;36732;47.980;11.652;2023-02-01T04:14:54;6.80;60.80
50758;DHT22;36732;47.980;11.652;2023-02-01T04:17:20;6.80;60.70
50758;DHT22;36732;47.980;11.652;2023-02-01T04:19:46;6.80;60.70
50758;DHT22;36732;47.980;11.652;2023-02-01T04:22:11;6.80;60.70
50758;DHT22;36732;47.980;11.652;2023-02-01T04:24:37;6.80;60.80
50758;DHT22;36732;47.980;11.652;2023-02-01T04:27:03;6.80;60.70
50758;DHT22;36732;47.980;11.652;2023-02-01T04:29:29;6.80;60.70
50758;DHT22;36732;47.980;11.652;2023-02-01T04:31:55;6.80;60.80
50758;DHT22;36732;47.980;11.652;2023-02-01T04:34:20;6.80;60.70
50758;DHT22;36732;47.980;11.652;2023-02-01T04:36:48;6.80;60.70
50758;DHT22;36732;47.980;11.652;2023-02-01T04:39:14;6.80;60.70
50758;DHT22;36732;47.980;11.652;2023-02-01T04:41:39;6.80;60.60
50758;DHT22;36732;47.980;11.652;2023-02-01T04:44:05;6.80;60.60
50758;DHT22;36732;47.980;11.652;2023-02-01T04:46:31;6.80;60.60
50758;DHT22;36732;47.980;11.652;2023-02-01T04:48:56;6.80;60.60
50758;DHT22;36732;47.980;11.652;2023-02-01T04:51:22;6.80;60.60
50758;DHT22;36732;47.980;11.652;2023-02-01T04:53:48;6.80;60.60
50758;DHT22;36732;47.980;11.652;2023-02-01T04:56:14;6.80;60.60
50758;DHT22;36732;47.980;11.652;2023-02-01T04:58:39;6.80;60.50
50758;DHT22;36732;47.980;11.652;2023-02-01T05:01:06;6.80;60.50
50758;DHT22;36732;47.980;11.652;2023-02-01T05:03:33;6.80;60.50
50758;DHT22;36732;47.980;11.652;2023-02-01T05:05:59;6.80;60.40
50758;DHT22;36732;47.980;11.652;2023-02-01T05:08:25;6.80;60.40
50758;DHT22;36732;47.980;11.652;2023-02-01T05:10:52;6.80;60.40
50758;DHT22;36732;47.980;11.652;2023-02-01T05:13:18;6.80;60.30
50758;DHT22;36732;47.980;11.652;2023-02-01T05:16:02;6.80;60.20
50758;DHT22;36732;47.980;11.652;2023-02-01T05:18:28;6.80;60.20
50758;DHT22;36732;47.980;11.652;2023-02-01T05:20:54;6.80;60.20
50758;DHT22;36732;47.980;11.652;2023-02-01T05:23:20;6.80;60.20
50758;DHT22;36732;47.980;11.652;2023-02-01T05:25:46;6.80;60.20
50758;DHT22;36732;47.980;11.652;2023-02-01T05:28:11;6.80;60.10
50758;DHT22;36732;47.980;11.652;2023-02-01T05:30:37;6.80;60.20
50758;DHT22;36732;47.980;11.652;2023-02-01T05:33:03;6.80;60.20
50758;DHT22;36732;47.980;11.652;2023-02-01T05:35:29;6.80;60.10
50758;DHT22;36732;47.980;11.652;2023-02-01T05:37:54;6.70;60.00
50758;DHT22;36732;47.980;11.652;2023-02-01T05:40:20;6.70;60.00
50758;DHT22;36732;47.980;11.652;2023-02-01T05:42:46;6.70;60.00
50758;DHT22;36732;47.980;11.652;2023-02-01T05:45:12;6.80;60.20
50758;DHT22;36732;47.980;11.652;2023-02-01T05:47:38;6.80;60.20
50758;DHT22;36732;47.980;11.652;2023-02-01T05:50:04;6.80;60.20
50758;DHT22;36732;47.980;11.652;2023-02-01T05:52:31;6.80;60.10
50758;DHT22;36732;47.980;11.652;2023-02-01T05:54:57;6.70;60.00
50758;DHT22;36732;47.980;11.652;2023-02-01T05:57:23;6.70;60.00
50758;DHT22;36732;47.980;11.652;2023-02-01T05:59:48;6.80;60.10
50758;DHT22;36732;47.980;11.652;2023-02-01T06:02:17;6.80;60.10
50758;DHT22;36732;47.980;11.652;2023-02-01T06:04:43;6.80;60.10
50758;DHT22;36732;47.980;11.652;2023-02-01T06:07:09;6.80;60.10
50758;DHT22;36732;47.980;11.652;2023-02-01T06:09:36;6.70;60.00
50758;DHT22;36732;47.980;11.652;2023-02-01T06:12:02;6.70;60.00
50758;DHT22;36732;47.980;11.652;2023-02-01T06:14:29;6.80;60.10
50758;DHT22;36732;47.980;11.652;2023-02-01T06:16:55;6.70;60.00
50758;DHT22;36732;47.980;11.652;2023-02-01T06:19:21;6.80;60.10
50758;DHT22;36732;47.980;11.652;2023-02-01T06:21:47;6.70;60.00
50758;DHT22;36732;47.980;11.652;2023-02-01T06:24:13;6.80;60.00
50758;DHT22;36732;47.980;11.652;2023-02-01T06:26:39;6.80;60.00
50758;DHT22;36732;47.980;11.652;2023-02-01T06:29:06;6.80;60.00
50758;DHT22;36732;47.980;11.652;2023-02-01T06:31:33;6.80;60.10
50758;DHT22;36732;47.980;11.652;2023-02-01T06:33:59;6.80;60.10
50758;DHT22;36732;47.980;11.652;2023-02-01T06:36:24;6.80;60.10
50758;DHT22;36732;47.980;11.652;2023-02-01T06:38:50;6.80;60.00
50758;DHT22;36732;47.980;11.652;2023-02-01T06:41:16;6.80;60.10
50758;DHT22;36732;47.980;11.652;2023-02-01T06:43:41;6.80;60.70
50758;DHT22;36732;47.980;11.652;2023-02-01T06:46:11;6.80;60.00
50758;DHT22;36732;47.980;11.652;2023-02-01T06:48:38;6.80;60.00
50758;DHT22;36732;47.980;11.652;2023-02-01T06:51:03;6.80;59.90
50758;DHT22;36732;47.980;11.652;2023-02-01T06:53:30;6.80;59.90
50758;DHT22;36732;47.980;11.652;2023-02-01T06:58:31;6.80;59.90
50758;DHT22;36732;47.980;11.652;2023-02-01T07:01:04;6.80;59.90
50758;DHT22;36732;47.980;11.652;2023-02-01T07:03:30;6.80;59.90
50758;DHT22;36732;47.980;11.652;2023-02-01T07:05:57;6.80;59.80
50758;DHT22;36732;47.980;11.652;2023-02-01T07:08:30;6.80;59.90
50758;DHT22;36732;47.980;11.652;2023-02-01T07:11:02;6.80;59.90
50758;DHT22;36732;47.980;11.652;2023-02-01T07:13:29;6.80;59.90
50758;DHT22;36732;47.980;11.652;2023-02-01T07:15:58;6.80;59.80
50758;DHT22;36732;47.980;11.652;2023-02-01T07:18:28;6.80;59.80
50758;DHT22;36732;47.980;11.652;2023-02-01T07:20:54;6.80;59.80
50758;DHT22;36732;47.980;11.652;2023-02-01T07:23:20;6.90;59.90
50758;DHT22;36732;47.980;11.652;2023-02-01T07:25:47;6.90;60.00
50758;DHT22;36732;47.980;11.652;2023-02-01T07:28:12;6.90;60.00
50758;DHT22;36732;47.980;11.652;2023-02-01T07:30:38;6.90;60.00
50758;DHT22;36732;47.980;11.652;2023-02-01T07:33:04;6.90;60.00
50758;DHT22;36732;47.980;11.652;2023-02-01T07:35:30;6.90;60.00
50758;DHT22;36732;47.980;11.652;2023-02-01T07:37:57;6.90;59.90
50758;DHT22;36732;47.980;11.652;2023-02-01T07:40:24;6.90;59.80
50758;DHT22;36732;47.980;11.652;2023-02-01T07:42:54;6.90;59.80
50758;DHT22;36732;47.980;11.652;2023-02-01T07:45:21;6.90;59.80
50758;DHT22;36732;47.980;11.652;2023-02-01T07:47:47;6.80;59.80
50758;DHT22;36732;47.980;11.652;2023-02-01T07:50:13;6.90;59.90
50758;DHT22;36732;47.980;11.652;2023-02-01T07:52:39;6.90;59.80
50758;DHT22;36732;47.980;11.652;2023-02-01T07:55:06;6.90;59.80
50758;DHT22;36732;47.980;11.652;2023-02-01T07:57:32;6.90;59.90
50758;DHT22;36732;47.980;11.652;2023-02-01T07:59:58;6.80;59.90
50758;DHT22;36732;47.980;11.652;2023-02-01T08:02:42;6.80;59.80
50758;DHT22;36732;47.980;11.652;2023-02-01T08:05:08;6.90;59.80
50758;DHT22;36732;47.980;11.652;2023-02-01T08:07:34;6.80;59.90
50758;DHT22;36732;47.980;11.652;2023-02-01T08:10:00;6.80;59.80
50758;DHT22;36732;47.980;11.652;2023-02-01T08:12:26;6.90;59.80
50758;DHT22;36732;47.980;11.652;2023-02-01T08:14:52;6.80;59.80
50758;DHT22;36732;47.980;11.652;2023-02-01T08:17:19;6.80;59.80
50758;DHT22;36732;47.980;11.652;2023-02-01T08:19:45;6.90;59.80
50758;DHT22;36732;47.980;11.652;2023-02-01T08:22:11;6.90;59.70
50758;DHT22;36732;47.980;11.652;2023-02-01T08:24:36;6.90;59.60
50758;DHT22;36732;47.980;11.652;2023-02-01T08:27:05;6.90;59.60
50758;DHT22;36732;47.980;11.652;2023-02-01T08:29:31;6.90;59.60
50758;DHT22;36732;47.980;11.652;2023-02-01T08:31:58;6.90;59.80
50758;DHT22;36732;47.980;11.652;2023-02-01T08:34:24;6.90;59.60
50758;DHT22;36732;47.980;11.652;2023-02-01T08:36:49;6.90;59.60
50758;DHT22;36732;47.980;11.652;2023-02-01T08:39:17;6.90;59.60
50758;DHT22;36732;47.980;11.652;2023-02-01T08:41:43;6.90;59.60
50758;DHT22;36732;47.980;11.652;2023-02-01T08:44:28;6.90;59.40
50758;DHT22;36732;47.980;11.652;2023-02-01T08:46:54;6.90;59.40
50758;DHT22;36732;47.980;11.652;2023-02-01T08:49:19;6.90;59.50
50758;DHT22;36732;47.980;11.652;2023-02-01T08:51:45;6.90;59.50
50758;DHT22;36732;47.980;11.652;2023-02-01T08:54:11;6.90;59.60
50758;DHT22;36732;47.980;11.652;2023-02-01T08:56:37;6.90;59.40
50758;DHT22;36732;47.980;11.652;2023-02-01T08:59:02;6.90;59.40
50758;DHT22;36732;47.980;11.652;2023-02-01T09:01:28;6.90;59.30
50758;DHT22;36732;47.980;11.652;2023-02-01T09:03:54;6.90;59.20
50758;DHT22;36732;47.980;11.652;2023-02-01T09:06:19;6.90;59.20
50758;DHT22;36732;47.980;11.652;2023-02-01T09:08:45;6.90;59.20
50758;DHT22;36732;47.980;11.652;2023-02-01T09:11:14;6.90;59.20
50758;DHT22;36732;47.980;11.652;2023-02-01T09:13:41;6.90;59.20
50758;DHT22;36732;47.980;11.652;2023-02-01T09:16:07;6.90;59.20
50758;DHT22;36732;47.980;11.652;2023-02-01T09:18:33;6.90;59.20
50758;DHT22;36732;47.980;11.652;2023-02-01T09:20:58;6.90;59.10
50758;DHT22;36732;47.980;11.652;2023-02-01T09:23:25;6.90;59.10
50758;DHT22;36732;47.980;11.652;2023-02-01T09:25:50;6.90;59.20
50758;DHT22;36732;47.980;11.652;2023-02-01T09:28:17;6.90;59.30
50758;DHT22;36732;47.980;11.652;2023-02-01T09:30:43;6.90;59.30
50758;DHT22;36732;47.980;11.652;2023-02-01T09:33:09;6.90;59.20
50758;DHT22;36732;47.980;11.652;2023-02-01T09:35:35;6.90;59.20
50758;DHT22;36732;47.980;11.652;2023-02-01T09:38:00;6.90;59.20
50758;DHT22;36732;47.980;11.652;2023-02-01T09:40:26;6.90;59.20
50758;DHT22;36732;47.980;11.652;2023-02-01T09:43:21;6.90;59.30
50758;DHT22;36732;47.980;11.652;2023-02-01T09:46:27;6.90;59.30
50758;DHT22;36732;47.980;11.652;2023-02-01T09:48:56;6.90;59.30
50758;DHT22;36732;47.980;11.652;2023-02-01T09:51:34;7.00;59.30
50758;DHT22;36732;47.980;11.652;2023-02-01T09:54:08;6.90;59.30
50758;DHT22;36732;47.980;11.652;2023-02-01T09:59:57;6.90;59.40
50758;DHT22;36732;47.980;11.652;2023-02-01T10:02:29;6.90;59.30
50758;DHT22;36732;47.980;11.652;2023-02-01T10:04:58;6.90;59.40
50758;DHT22;36732;47.980;11.652;2023-02-01T10:07:48;7.00;59.40
50758;DHT22;36732;47.980;11.652;2023-02-01T10:10:30;7.00;59.50
50758;DHT22;36732;47.980;11.652;2023-02-01T10:16:30;7.00;59.60
50758;DHT22;36732;47.980;11.652;2023-02-01T10:19:27;7.00;59.60
50758;DHT22;36732;47.980;11.652;2023-02-01T10:22:22;7.00;59.60
50758;DHT22;36732;47.980;11.652;2023-02-01T10:25:08;7.00;59.70
50758;DHT22;36732;47.980;11.652;2023-02-01T10:27:39;7.00;59.60
50758;DHT22;36732;47.980;11.652;2023-02-01T10:30:17;7.00;59.60
50758;DHT22;36732;47.980;11.652;2023-02-01T10:32:45;7.00;59.70
50758;DHT22;36732;47.980;11.652;2023-02-01T10:35:16;7.00;59.60
50758;DHT22;36732;47.980;11.652;2023-02-01T10:37:44;7.10;59.70
50758;DHT22;36732;47.980;11.652;2023-02-01T10:40:23;7.00;59.70
50758;DHT22;36732;47.980;11.652;2023-02-01T10:42:52;7.00;59.70
50758;DHT22;36732;47.980;11.652;2023-02-01T10:45:30;7.10;59.80
50758;DHT22;36732;47.980;11.652;2023-02-01T10:47:59;7.10;59.80
50758;DHT22;36732;47.980;11.652;2023-02-01T10:50:35;7.10;59.80
50758;DHT22;36732;47.980;11.652;2023-02-01T10:53:36;7.10;59.90
50758;DHT22;36732;47.980;11.652;2023-02-01T10:56:13;7.10;59.90
50758;DHT22;36732;47.980;11.652;2023-02-01T10:58:46;7.10;59.90
50758;DHT22;36732;47.980;11.652;2023-02-01T11:01:22;7.10;59.90
50758;DHT22;36732;47.980;11.652;2023-02-01T11:04:00;7.10;59.90
50758;DHT22;36732;47.980;11.652;2023-02-01T11:06:39;7.20;60.00
50758;DHT22;36732;47.980;11.652;2023-02-01T11:11:35;7.20;59.90
50758;DHT22;36732;47.980;11.652;2023-02-01T11:19:45;7.10;60.00
50758;DHT22;36732;47.980;11.652;2023-02-01T11:22:12;7.20;59.90
50758;DHT22;36732;47.980;11.652;2023-02-01T11:24:39;7.20;59.80
50758;DHT22;36732;47.980;11.652;2023-02-01T11:27:15;7.20;59.80
50758;DHT22;36732;47.980;11.652;2023-02-01T11:29:45;7.10;59.80
50758;DHT22;36732;47.980;11.652;2023-02-01T11:32:14;7.20;59.80
50758;DHT22;36732;47.980;11.652;2023-02-01T11:37:25;7.20;59.60
50758;DHT22;36732;47.980;11.652;2023-02-01T11:40:01;7.20;59.70
50758;DHT22;36732;47.980;11.652;2023-02-01T11:42:29;7.20;59.70
50758;DHT22;36732;47.980;11.652;2023-02-01T11:45:28;7.20;59.70
50758;DHT22;36732;47.980;11.652;2023-02-01T11:47:57;7.20;59.70
50758;DHT22;36732;47.980;11.652;2023-02-01T11:50:37;7.20;59.60
50758;DHT22;36732;47.980;11.652;2023-02-01T12:16:34;7.20;59.30
50758;DHT22;36732;47.980;11.652;2023-02-01T12:32:11;7.20;59.10
50758;DHT22;36732;47.980;11.652;2023-02-01T12:43:16;7.10;58.90
50758;DHT22;36732;47.980;11.652;2023-02-01T12:46:26;7.20;59.10
50758;DHT22;36732;47.980;11.652;2023-02-01T12:55:33;7.20;58.60
50758;DHT22;36732;47.980;11.652;2023-02-01T12:58:17;7.20;58.80
50758;DHT22;36732;47.980;11.652;2023-02-01T13:00:47;7.10;58.70
50758;DHT22;36732;47.980;11.652;2023-02-01T13:06:29;7.10;58.70
50758;DHT22;36732;47.980;11.652;2023-02-01T13:11:55;7.20;58.70
50758;DHT22;36732;47.980;11.652;2023-02-01T13:14:38;7.20;58.60
50758;DHT22;36732;47.980;11.652;2023-02-01T13:17:18;7.10;58.20
50758;DHT22;36732;47.980;11.652;2023-02-01T13:23:17;7.10;58.30
50758;DHT22;36732;47.980;11.652;2023-02-01T13:25:50;7.10;58.40
50758;DHT22;36732;47.980;11.652;2023-02-01T13:31:18;7.10;58.60
50758;DHT22;36732;47.980;11.652;2023-02-01T13:42:53;7.10;58.80
50758;DHT22;36732;47.980;11.652;2023-02-01T13:45:22;7.20;58.80
50758;DHT22;36732;47.980;11.652;2023-02-01T13:47:52;7.10;58.80
50758;DHT22;36732;47.980;11.652;2023-02-01T13:50:21;7.20;58.80
50758;DHT22;36732;47.980;11.652;2023-02-01T13:53:22;7.20;59.00
50758;DHT22;36732;47.980;11.652;2023-02-01T13:55:59;7.20;58.90
50758;DHT22;36732;47.980;11.652;2023-02-01T14:03:58;7.20;58.80
50758;DHT22;36732;47.980;11.652;2023-02-01T14:16:42;7.20;58.50
50758;DHT22;36732;47.980;11.652;2023-02-01T14:19:26;7.20;58.60
50758;DHT22;36732;47.980;11.652;2023-02-01T14:22:01;7.20;58.50
50758;DHT22;36732;47.980;11.652;2023-02-01T14:24:54;7.20;58.40
50758;DHT22;36732;47.980;11.652;2023-02-01T14:27:25;7.20;59.00
50758;DHT22;36732;47.980;11.652;2023-02-01T14:30:02;7.20;58.50
50758;DHT22;36732;47.980;11.652;2023-02-01T14:32:36;7.20;58.20
50758;DHT22;36732;47.980;11.652;2023-02-01T14:35:08;7.20;58.20
50758;DHT22;36732;47.980;11.652;2023-02-01T14:37:43;7.20;58.30
50758;DHT22;36732;47.980;11.652;2023-02-01T15:04:12;7.10;58.00
50758;DHT22;36732;47.980;11.652;2023-02-01T15:06:57;7.10;58.00
50758;DHT22;36732;47.980;11.652;2023-02-01T15:09:34;7.10;58.20
50758;DHT22;36732;47.980;11.652;2023-02-01T15:14:38;7.10;58.20
50758;DHT22;36732;47.980;11.652;2023-02-01T15:17:25;7.10;58.20
50758;DHT22;36732;47.980;11.652;2023-02-01T15:19:57;7.10;58.30
50758;DHT22;36732;47.980;11.652;2023-02-01T15:22:26;7.10;58.30
50758;DHT22;36732;47.980;11.652;2023-02-01T15:24:58;7.10;58.40
50758;DHT22;36732;47.980;11.652;2023-02-01T15:27:26;7.10;58.50
50758;DHT22;36732;47.980;11.652;2023-02-01T15:29:53;7.10;58.50
50758;DHT22;36732;47.980;11.652;2023-02-01T15:32:34;7.10;58.70
50758;DHT22;36732;47.980;11.652;2023-02-01T15:35:03;7.10;58.80
50758;DHT22;36732;47.980;11.652;2023-02-01T15:37:30;7.10;58.80
50758;DHT22;36732;47.980;11.652;2023-02-01T15:42:58;7.10;58.90
50758;DHT22;36732;47.980;11.652;2023-02-01T15:45:32;7.10;58.90
50758;DHT22;36732;47.980;11.652;2023-02-01T15:47:59;7.10;58.80
50758;DHT22;36732;47.980;11.652;2023-02-01T15:50:33;7.10;58.80
50758;DHT22;36732;47.980;11.652;2023-02-01T15:52:59;7.10;58.90
50758;DHT22;36732;47.980;11.652;2023-02-01T15:55:39;7.10;58.90
50758;DHT22;36732;47.980;11.652;2023-02-01T15:58:08;7.10;58.90
50758;DHT22;36732;47.980;11.652;2023-02-01T16:00:50;7.10;58.90
50758;DHT22;36732;47.980;11.652;2023-02-01T16:03:28;7.10;58.90
50758;DHT22;36732;47.980;11.652;2023-02-01T16:05:59;7.10;58.80
50758;DHT22;36732;47.980;11.652;2023-02-01T16:08:28;7.10;58.80
50758;DHT22;36732;47.980;11.652;2023-02-01T16:11:12;7.10;58.90
50758;DHT22;36732;47.980;11.652;2023-02-01T16:13:39;7.10;58.90
50758;DHT22;36732;47.980;11.652;2023-02-01T16:16:08;7.10;59.00
50758;DHT22;36732;47.980;11.652;2023-02-01T16:18:41;7.10;59.00
50758;DHT22;36732;47.980;11.652;2023-02-01T16:21:07;7.10;59.10
50758;DHT22;36732;47.980;11.652;2023-02-01T16:23:35;7.10;59.00
50758;DHT22;36732;47.980;11.652;2023-02-01T16:26:02;7.10;59.10
50758;DHT22;36732;47.980;11.652;2023-02-01T16:28:28;7.00;58.90
50758;DHT22;36732;47.980;11.652;2023-02-01T16:30:54;7.10;58.80
50758;DHT22;36732;47.980;11.652;2023-02-01T16:33:21;7.00;59.30
50758;DHT22;36732;47.980;11.652;2023-02-01T16:35:48;7.10;58.70
50758;DHT22;36732;47.980;11.652;2023-02-01T16:38:16;7.10;58.70
50758;DHT22;36732;47.980;11.652;2023-02-01T16:40:45;7.10;58.70
50758;DHT22;36732;47.980;11.652;2023-02-01T16:43:22;7.10;58.60
50758;DHT22;36732;47.980;11.652;2023-02-01T16:45:51;7.10;58.60
50758;DHT22;36732;47.980;11.652;2023-02-01T16:48:22;7.10;58.50
50758;DHT22;36732;47.980;11.652;2023-02-01T16:50:57;7.10;58.30
50758;DHT22;36732;47.980;11.652;2023-02-01T16:53:30;7.10;58.40
50758;DHT22;36732;47.980;11.652;2023-02-01T16:55:56;7.10;58.20
50758;DHT22;36732;47.980;11.652;2023-02-01T16:58:24;7.10;58.20
50758;DHT22;36732;47.980;11.652;2023-02-01T17:00:50;7.10;58.20
50758;DHT22;36732;47.980;11.652;2023-02-01T17:03:18;7.10;58.10
50758;DHT22;36732;47.980;11.652;2023-02-01T17:05:50;7.10;58.10
50758;DHT22;36732;47.980;11.652;2023-02-01T17:08:26;7.10;58.20
50758;DHT22;36732;47.980;11.652;2023-02-01T17:10:54;7.10;58.10
50758;DHT22;36732;47.980;11.652;2023-02-01T17:13:20;7.10;58.10
50758;DHT22;36732;47.980;11.652;2023-02-01T17:15:50;7.10;57.90
50758;DHT22;36732;47.980;11.652;2023-02-01T17:18:34;7.00;58.00
50758;DHT22;36732;47.980;11.652;2023-02-01T17:21:01;7.10;58.00
50758;DHT22;36732;47.980;11.652;2023-02-01T17:23:29;7.10;58.00
50758;DHT22;36732;47.980;11.652;2023-02-01T17:25:56;7.10;58.00
50758;DHT22;36732;47.980;11.652;2023-02-01T17:28:22;7.10;58.00
50758;DHT22;36732;47.980;11.652;2023-02-01T17:30:48;7.10;58.10
50758;DHT22;36732;47.980;11.652;2023-02-01T17:33:26;7.10;58.20
50758;DHT22;36732;47.980;11.652;2023-02-01T17:35:55;7.10;57.90
50758;DHT22;36732;47.980;11.652;2023-02-01T17:38:21;7.10;58.20
50758;DHT22;36732;47.980;11.652;2023-02-01T17:40:48;7.20;58.10
50758;DHT22;36732;47.980;11.652;2023-02-01T17:43:23;7.10;58.10
50758;DHT22;36732;47.980;11.652;2023-02-01T17:45:55;7.20;57.90
50758;DHT22;36732;47.980;11.652;2023-02-01T17:48:23;7.20;57.90
50758;DHT22;36732;47.980;11.652;2023-02-01T17:50:50;7.20;58.00
50758;DHT22;36732;47.980;11.652;2023-02-01T17:53:20;7.20;57.80
50758;DHT22;36732;47.980;11.652;2023-02-01T17:55:49;7.20;57.80
50758;DHT22;36732;47.980;11.652;2023-02-01T17:58:16;7.30;57.80
50758;DHT22;36732;47.980;11.652;2023-02-01T18:00:43;7.30;57.70
50758;DHT22;36732;47.980;11.652;2023-02-01T18:03:23;7.30;57.60
50758;DHT22;36732;47.980;11.652;2023-02-01T18:05:52;7.30;57.40
50758;DHT22;36732;47.980;11.652;2023-02-01T18:08:20;7.30;57.60
50758;DHT22;36732;47.980;11.652;2023-02-01T18:10:52;7.40;58.10
50758;DHT22;36732;47.980;11.652;2023-02-01T18:13:28;7.30;57.10
50758;DHT22;36732;47.980;11.652;2023-02-01T18:15:56;7.40;57.20
50758;DHT22;36732;47.980;11.652;2023-02-01T18:18:24;7.40;57.00
50758;DHT22;36732;47.980;11.652;2023-02-01T18:20:50;7.40;57.10
50758;DHT22;36732;47.980;11.652;2023-02-01T18:23:21;7.40;57.10
50758;DHT22;36732;47.980;11.652;2023-02-01T18:25:49;7.40;57.00
50758;DHT22;36732;47.980;11.652;2023-02-01T18:28:16;7.40;56.90
50758;DHT22;36732;47.980;11.652;2023-02-01T18:30:47;7.50;56.70